Time;durP1;ratioP1;P1;durP2;ratioP2;P2;SDS_P1;SDS_P2;PMS_P1;PMS_P2;Temp;Humidity;BMP_temperature;BMP_pressure;BME280_temperature;BME280_humidity;BME280_pressure;Samples;Min_cycle;Max_cycle;Signal;HPM_P1;HPM_P2
2023/03/29 00:02:21;;;;;;;6.57;3.40;;;2.80;99.90;;;;;;5019723;28;20060;-87
2023/03/29 00:04:46;;;;;;;12.83;4.70;;;2.80;99.90;;;;;;5020786;28;20041;-87
2023/03/29 00:07:12;;;;;;;4.93;3.20;;;2.80;99.90;;;;;;5019941;28;20055;-87
2023/03/29 00:09:38;;;;;;;7.00;3.60;;;2.80;99.90;;;;;;5019289;28;20045;-86
2023/03/29 00:12:04;;;;;;;5.43;3.10;;;2.80;99.90;;;;;;5019051;28;20037;-87
2023/03/29 00:14:30;;;;;;;5.07;3.23;;;2.90;99.90;;;;;;5021535;28;20037;-87
2023/03/29 00:16:56;;;;;;;7.57;3.40;;;2.90;99.90;;;;;;5020948;28;20045;-88
2023/03/29 00:19:22;;;;;;;15.47;4.80;;;2.90;99.90;;;;;;5019612;28;20376;-87
2023/03/29 00:21:47;;;;;;;8.87;3.20;;;3.00;99.90;;;;;;5019687;28;20037;-86
2023/03/29 00:24:13;;;;;;;6.77;2.83;;;3.00;99.90;;;;;;5020304;28;20152;-87
2023/03/29 00:26:38;;;;;;;6.33;2.93;;;3.00;99.90;;;;;;5021484;28;20037;-86
2023/03/29 00:29:05;;;;;;;4.93;2.97;;;3.00;99.90;;;;;;5019714;28;20033;-86
2023/03/29 00:31:32;;;;;;;6.00;2.83;;;3.10;99.90;;;;;;5019243;28;20464;-86
2023/03/29 00:33:58;;;;;;;7.23;2.60;;;3.10;99.90;;;;;;5018661;28;20032;-86
2023/03/29 00:36:23;;;;;;;4.80;2.80;;;3.20;99.90;;;;;;5019522;28;20037;-87
2023/03/29 00:38:49;;;;;;;2.50;1.60;;;3.30;99.90;;;;;;5020272;28;20029;-87
2023/03/29 00:41:15;;;;;;;2.67;1.37;;;3.50;99.90;;;;;;5019561;28;20037;-86
2023/03/29 00:44:03;;;;;;;6.10;1.47;;;3.70;99.90;;;;;;5019482;28;20030;-86
2023/03/29 00:46:30;;;;;;;1.83;1.40;;;3.80;99.90;;;;;;5019114;28;20042;-86
2023/03/29 00:49:14;;;;;;;3.23;1.67;;;3.90;99.90;;;;;;5018552;28;20029;-86
2023/03/29 00:51:41;;;;;;;2.50;1.77;;;3.90;99.90;;;;;;5018852;28;20144;-86
2023/03/29 00:54:13;;;;;;;3.13;1.83;;;3.90;99.90;;;;;;5019274;28;20700;-86
2023/03/29 00:56:42;;;;;;;4.03;1.60;;;4.00;99.90;;;;;;5018719;28;20030;-87
2023/03/29 00:59:22;;;;;;;2.47;1.63;;;3.90;99.90;;;;;;5017833;28;20057;-86
2023/03/29 01:01:57;;;;;;;3.53;1.90;;;3.90;99.90;;;;;;5019421;28;20105;-87
2023/03/29 01:04:46;;;;;;;2.63;1.85;;;3.80;99.90;;;;;;5019591;28;20029;-87
2023/03/29 01:07:20;;;;;;;3.63;1.77;;;3.80;99.90;;;;;;5019529;28;20497;-86
2023/03/29 01:09:52;;;;;;;2.80;2.00;;;3.80;99.90;;;;;;5019287;28;20022;-87
2023/03/29 01:12:25;;;;;;;3.20;1.97;;;3.70;99.90;;;;;;5019122;28;20064;-87
2023/03/29 01:14:57;;;;;;;2.93;2.00;;;3.70;99.90;;;;;;5019153;28;20033;-87
2023/03/29 01:17:24;;;;;;;3.87;2.10;;;3.70;99.90;;;;;;5019669;28;20511;-87
2023/03/29 01:19:57;;;;;;;5.30;2.00;;;3.60;99.90;;;;;;5018872;28;20109;-87
2023/03/29 01:23:02;;;;;;;3.33;2.00;;;3.60;99.90;;;;;;5018857;28;20038;-87
2023/03/29 01:25:46;;;;;;;2.83;2.13;;;3.60;99.90;;;;;;5018230;28;20021;-87
2023/03/29 01:28:16;;;;;;;2.90;2.10;;;3.50;99.90;;;;;;5019351;28;21417;-87
2023/03/29 01:30:52;;;;;;;3.97;2.17;;;3.50;99.90;;;;;;5019498;28;20022;-87
2023/03/29 01:33:22;;;;;;;4.70;2.07;;;3.50;99.90;;;;;;4997613;28;20036;-87
2023/03/29 01:36:00;;;;;;;2.77;2.17;;;3.50;99.90;;;;;;5020324;28;20033;-87
2023/03/29 01:38:35;;;;;;;4.03;1.93;;;3.50;99.90;;;;;;5017283;28;20048;-87
2023/03/29 01:41:02;;;;;;;3.00;2.23;;;3.50;99.90;;;;;;5019109;28;20036;-87
2023/03/29 01:43:33;;;;;;;3.60;2.17;;;3.50;99.90;;;;;;5018611;28;20092;-87
2023/03/29 01:46:13;;;;;;;3.83;2.33;;;3.50;99.90;;;;;;5018840;28;20118;-87
2023/03/29 01:48:52;;;;;;;4.53;2.30;;;3.40;99.90;;;;;;5017178;28;20038;-87
2023/03/29 01:51:28;;;;;;;3.43;2.00;;;3.40;99.90;;;;;;5017419;28;20043;-87
2023/03/29 01:54:01;;;;;;;3.37;2.10;;;3.40;99.90;;;;;;5017692;28;20509;-87
2023/03/29 01:56:29;;;;;;;3.80;2.20;;;3.40;99.90;;;;;;5018819;28;20388;-87
2023/03/29 01:59:00;;;;;;;2.83;1.90;;;3.40;99.90;;;;;;4987253;28;20054;-87
2023/03/29 02:01:33;;;;;;;3.60;1.87;;;3.40;99.90;;;;;;4999923;28;20033;-87
2023/03/29 02:04:02;;;;;;;3.37;2.23;;;3.40;99.90;;;;;;4999401;28;20034;-86
2023/03/29 02:06:31;;;;;;;4.30;2.10;;;3.40;99.90;;;;;;5000081;28;20456;-87
2023/03/29 02:08:57;;;;;;;3.20;2.07;;;3.40;99.90;;;;;;4999425;28;20034;-86
2023/03/29 02:11:25;;;;;;;4.93;1.83;;;3.40;99.90;;;;;;5000210;28;20489;-87
2023/03/29 02:13:52;;;;;;;3.93;2.30;;;3.40;99.90;;;;;;4999602;28;20033;-87
2023/03/29 02:16:18;;;;;;;3.37;2.10;;;3.40;99.90;;;;;;4982846;28;20022;-87
2023/03/29 02:18:47;;;;;;;3.53;1.70;;;3.40;99.90;;;;;;4981970;28;20092;-87
2023/03/29 02:21:22;;;;;;;3.73;1.80;;;3.40;99.90;;;;;;5000088;28;20021;-87
2023/03/29 02:23:48;;;;;;;;;;;3.40;99.90;;;;;;5000322;28;20034;-87
2023/03/29 02:26:16;;;;;;;3.63;2.03;;;3.40;99.90;;;;;;4999227;28;19921;-86
2023/03/29 02:28:42;;;;;;;2.90;2.00;;;3.40;99.90;;;;;;4999289;28;20030;-87
2023/03/29 02:31:14;;;;;;;2.70;1.87;;;3.40;99.90;;;;;;4999724;28;20362;-88
2023/03/29 02:33:45;;;;;;;2.47;1.93;;;3.30;99.90;;;;;;4999738;28;20038;-87
2023/03/29 02:36:15;;;;;;;6.30;1.73;;;3.30;99.90;;;;;;5000313;28;20033;-87
2023/03/29 02:38:40;;;;;;;4.77;2.10;;;3.30;99.90;;;;;;5002737;28;21512;-88
2023/03/29 02:41:07;;;;;;;4.33;1.90;;;3.30;99.90;;;;;;5005952;28;20030;-88
2023/03/29 02:43:34;;;;;;;3.10;1.80;;;3.30;99.90;;;;;;5005988;28;20243;-87
2023/03/29 02:46:01;;;;;;;3.13;1.90;;;3.30;99.90;;;;;;5006369;28;20026;-87
2023/03/29 02:48:28;;;;;;;3.67;1.70;;;3.30;99.90;;;;;;5005878;28;20080;-87
2023/03/29 02:50:59;;;;;;;2.87;1.50;;;3.30;99.90;;;;;;5006106;28;20029;-87
2023/03/29 02:53:36;;;;;;;3.53;1.80;;;3.30;99.90;;;;;;5006064;28;20565;-87
2023/03/29 02:56:03;;;;;;;2.87;1.87;;;3.30;99.90;;;;;;5006819;28;20029;-87
2023/03/29 02:58:30;;;;;;;2.47;1.70;;;3.30;99.90;;;;;;5012159;28;20041;-87
2023/03/29 03:01:00;;;;;;;2.90;1.80;;;3.30;99.90;;;;;;5002619;28;20047;-87
2023/03/29 03:03:26;;;;;;;3.50;1.93;;;3.30;99.90;;;;;;5023408;28;20033;-87
2023/03/29 03:05:52;;;;;;;2.53;1.70;;;3.30;99.90;;;;;;5023642;28;20335;-87
2023/03/29 03:08:18;;;;;;;5.87;1.90;;;3.30;99.90;;;;;;5024262;28;20207;-87
2023/03/29 03:10:44;;;;;;;4.90;1.93;;;3.30;99.90;;;;;;5013683;28;20030;-88
2023/03/29 03:13:11;;;;;;;2.47;1.80;;;3.30;99.90;;;;;;5023107;28;20060;-87
2023/03/29 03:15:39;;;;;;;3.43;2.10;;;3.30;99.90;;;;;;5023845;28;20065;-87
2023/03/29 03:18:05;;;;;;;2.57;1.60;;;3.30;99.90;;;;;;5023759;28;20712;-86
2023/03/29 03:20:31;;;;;;;3.37;1.80;;;3.30;99.90;;;;;;5002971;28;20017;-87
2023/03/29 03:22:57;;;;;;;2.97;1.60;;;3.30;99.90;;;;;;5023847;28;20116;-87
2023/03/29 03:25:22;;;;;;;2.23;1.57;;;3.30;99.90;;;;;;5023455;28;20037;-86
2023/03/29 03:27:49;;;;;;;3.80;1.60;;;3.30;99.90;;;;;;5023237;28;20076;-86
2023/03/29 03:30:16;;;;;;;3.60;1.50;;;3.30;99.90;;;;;;5018336;28;20036;-88
2023/03/29 03:32:45;;;;;;;2.43;1.50;;;3.30;99.90;;;;;;5020790;28;20108;-87
2023/03/29 03:35:11;;;;;;;3.60;1.50;;;3.20;99.90;;;;;;5016516;28;20042;-87
2023/03/29 03:37:37;;;;;;;1.90;1.47;;;3.20;99.90;;;;;;5024549;28;20069;-87
2023/03/29 03:40:04;;;;;;;3.33;1.50;;;3.20;99.90;;;;;;5023503;28;20032;-87
2023/03/29 03:42:30;;;;;;;3.87;1.63;;;3.20;99.90;;;;;;5023397;28;20029;-87
2023/03/29 03:44:56;;;;;;;3.17;1.57;;;3.20;99.90;;;;;;5025278;28;20104;-87
2023/03/29 03:47:22;;;;;;;4.80;1.60;;;3.10;99.90;;;;;;5024048;28;20052;-87
2023/03/29 03:49:48;;;;;;;2.50;1.53;;;3.10;99.90;;;;;;5022551;28;20484;-87
2023/03/29 03:52:13;;;;;;;3.47;1.77;;;3.10;99.90;;;;;;5021409;28;20037;-87
2023/03/29 03:54:39;;;;;;;2.80;1.80;;;3.00;99.90;;;;;;5019901;28;20099;-87
2023/03/29 03:57:05;;;;;;;3.67;1.83;;;3.00;99.90;;;;;;5019522;28;20041;-87
2023/03/29 03:59:30;;;;;;;4.43;1.93;;;3.00;99.90;;;;;;5020472;28;20108;-88
2023/03/29 04:01:57;;;;;;;2.77;1.50;;;2.90;99.90;;;;;;5020409;28;20057;-87
2023/03/29 04:04:22;;;;;;;2.10;1.37;;;2.90;99.90;;;;;;5019638;28;20060;-87
2023/03/29 04:06:49;;;;;;;4.40;1.50;;;2.90;99.90;;;;;;5020972;28;20112;-87
2023/03/29 04:09:15;;;;;;;3.10;1.50;;;2.90;99.90;;;;;;5021219;28;20038;-86
2023/03/29 04:11:40;;;;;;;2.93;1.80;;;3.00;99.90;;;;;;4998492;28;20037;-87
2023/03/29 04:14:06;;;;;;;2.93;1.53;;;3.00;99.90;;;;;;5019118;28;20025;-88
2023/03/29 04:16:31;;;;;;;2.07;1.30;;;3.00;99.90;;;;;;5018829;28;20037;-87
2023/03/29 04:18:57;;;;;;;2.80;1.70;;;3.00;99.90;;;;;;5018241;28;20045;-87
2023/03/29 04:21:26;;;;;;;2.77;1.57;;;3.10;99.90;;;;;;5017468;28;20030;-87
2023/03/29 04:23:51;;;;;;;4.10;1.47;;;3.10;99.90;;;;;;4996823;28;20036;-88
2023/03/29 04:26:17;;;;;;;2.93;1.20;;;3.20;99.90;;;;;;5019953;28;20026;-87
2023/03/29 04:28:43;;;;;;;3.47;1.37;;;3.20;99.90;;;;;;5019444;28;20173;-88
2023/03/29 04:31:13;;;;;;;3.20;1.40;;;3.30;99.90;;;;;;5016390;28;20455;-88
2023/03/29 04:33:39;;;;;;;4.97;1.63;;;3.40;99.90;;;;;;5016609;28;20029;-87
2023/03/29 04:36:05;;;;;;;3.20;1.67;;;3.40;99.90;;;;;;4998294;28;20034;-87
2023/03/29 04:38:34;;;;;;;3.33;1.50;;;3.50;99.90;;;;;;5016283;28;20057;-87
2023/03/29 04:41:02;;;;;;;2.80;1.43;;;3.50;99.90;;;;;;5016632;28;20034;-88
2023/03/29 04:43:29;;;;;;;5.50;1.63;;;3.60;99.90;;;;;;5017393;28;20088;-88
2023/03/29 04:45:55;;;;;;;3.17;1.60;;;3.70;99.90;;;;;;5018412;28;20018;-88
2023/03/29 04:48:21;;;;;;;2.47;1.20;;;3.80;99.90;;;;;;5018550;28;20040;-88
2023/03/29 04:50:47;;;;;;;3.90;1.10;;;3.90;99.90;;;;;;4998422;28;20025;-88
2023/03/29 04:53:12;;;;;;;1.83;1.13;;;4.10;99.90;;;;;;5015875;28;20041;-87
2023/03/29 04:55:38;;;;;;;2.47;1.30;;;4.30;99.90;;;;;;5016447;28;20116;-87
2023/03/29 04:58:04;;;;;;;1.67;1.20;;;4.50;99.90;;;;;;5010069;28;20073;-88
2023/03/29 05:00:30;;;;;;;2.90;1.40;;;4.60;99.90;;;;;;4993258;28;20561;-88
2023/03/29 05:02:56;;;;;;;1.83;1.17;;;4.70;99.90;;;;;;4991449;28;20085;-86
2023/03/29 05:05:22;;;;;;;1.80;1.10;;;4.80;99.90;;;;;;4992922;28;21291;-86
2023/03/29 05:07:48;;;;;;;4.60;1.20;;;4.80;99.90;;;;;;4991486;28;20048;-85
2023/03/29 05:10:14;;;;;;;3.00;1.30;;;4.90;99.90;;;;;;4986832;28;22451;-88
2023/03/29 05:12:40;;;;;;;2.20;1.27;;;5.00;99.90;;;;;;4990335;28;20419;-88
2023/03/29 05:15:07;;;;;;;5.43;1.60;;;5.10;99.90;;;;;;4992493;28;20026;-86
2023/03/29 05:17:33;;;;;;;3.83;1.20;;;5.10;99.90;;;;;;4988994;28;20048;-87
2023/03/29 05:19:58;;;;;;;2.03;1.17;;;5.20;99.90;;;;;;4991253;28;20023;-87
2023/03/29 05:22:24;;;;;;;3.23;1.20;;;5.20;99.90;;;;;;4990687;28;20386;-86
2023/03/29 05:24:51;;;;;;;2.47;1.30;;;5.30;99.90;;;;;;4992487;28;20050;-87
2023/03/29 05:27:17;;;;;;;2.87;1.07;;;5.30;99.90;;;;;;4990417;28;20034;-86
2023/03/29 05:29:46;;;;;;;3.20;1.30;;;5.40;99.90;;;;;;4992601;28;20038;-86
2023/03/29 05:32:12;;;;;;;2.47;1.37;;;5.40;99.90;;;;;;4990580;28;20030;-86
2023/03/29 05:34:38;;;;;;;4.57;1.20;;;5.50;99.90;;;;;;4992372;28;20052;-85
2023/03/29 05:37:04;;;;;;;4.33;1.33;;;5.40;99.90;;;;;;4992045;28;20328;-87
2023/03/29 05:39:32;;;;;;;6.10;1.40;;;5.50;99.90;;;;;;4992436;28;20081;-86
2023/03/29 05:41:58;;;;;;;2.77;1.20;;;5.50;99.90;;;;;;4991214;28;20025;-85
2023/03/29 05:44:24;;;;;;;3.67;1.30;;;5.60;99.90;;;;;;4986284;28;20113;-86
2023/03/29 05:46:50;;;;;;;4.67;1.60;;;5.60;99.90;;;;;;4987924;28;20026;-86
2023/03/29 05:49:16;;;;;;;4.13;1.50;;;5.60;99.90;;;;;;4987524;28;20461;-86
2023/03/29 05:51:44;;;;;;;3.87;1.30;;;5.60;99.90;;;;;;4986873;28;20057;-86
2023/03/29 05:54:10;;;;;;;3.50;1.33;;;5.60;99.90;;;;;;4988441;28;20042;-86
2023/03/29 05:56:36;;;;;;;3.17;1.50;;;5.60;99.90;;;;;;4991271;28;20580;-87
2023/03/29 05:59:01;;;;;;;3.43;1.37;;;5.70;99.90;;;;;;5000622;28;20080;-86
2023/03/29 06:01:27;;;;;;;2.83;1.37;;;5.70;99.90;;;;;;5004475;28;20038;-86
2023/03/29 06:03:53;;;;;;;3.23;1.17;;;5.70;99.90;;;;;;5011061;28;20029;-86
2023/03/29 06:06:20;;;;;;;2.33;1.10;;;5.80;99.90;;;;;;4993663;28;20041;-86
2023/03/29 06:08:46;;;;;;;2.90;1.20;;;5.80;99.90;;;;;;5010972;28;20490;-85
2023/03/29 06:11:13;;;;;;;3.73;1.30;;;5.80;99.90;;;;;;5014112;28;20499;-89
2023/03/29 06:13:40;;;;;;;3.00;1.20;;;5.80;99.90;;;;;;5013766;28;20037;-92
2023/03/29 06:16:07;;;;;;;3.43;1.20;;;5.90;99.90;;;;;;5012464;28;20073;-91
2023/03/29 06:18:33;;;;;;;2.60;1.20;;;5.90;99.90;;;;;;5013615;28;20120;-92
2023/03/29 06:21:01;;;;;;;3.87;1.20;;;5.90;99.90;;;;;;5011918;28;20562;-90
2023/03/29 06:23:27;;;;;;;2.97;1.40;;;6.00;99.90;;;;;;5013396;28;20125;-92
2023/03/29 06:25:54;;;;;;;3.53;1.57;;;6.00;99.90;;;;;;5012772;28;20056;-92
2023/03/29 06:28:20;;;;;;;1.90;1.37;;;6.10;99.90;;;;;;5014853;28;20033;-93
2023/03/29 06:30:46;;;;;;;4.50;1.37;;;6.00;99.90;;;;;;5014725;28;20116;-91
2023/03/29 06:33:13;;;;;;;4.07;1.40;;;6.10;99.90;;;;;;5013531;28;20128;-91
2023/03/29 06:35:42;;;;;;;1.70;1.30;;;6.10;99.90;;;;;;5014434;28;20030;-91
2023/03/29 06:38:08;;;;;;;3.93;1.50;;;6.20;99.90;;;;;;5012535;28;20049;-92
2023/03/29 06:40:36;;;;;;;3.50;1.23;;;6.30;99.90;;;;;;5012455;28;20100;-93
2023/03/29 06:43:02;;;;;;;4.00;1.33;;;6.30;99.90;;;;;;5013112;28;20112;-93
2023/03/29 06:45:30;;;;;;;6.90;1.40;;;6.50;99.90;;;;;;4995594;28;20021;-91
2023/03/29 06:47:56;;;;;;;4.07;1.10;;;6.50;99.90;;;;;;5014204;28;20034;-92
2023/03/29 06:50:22;;;;;;;3.67;1.10;;;6.60;99.90;;;;;;5011741;28;20021;-92
2023/03/29 06:52:48;;;;;;;2.43;1.20;;;6.80;99.90;;;;;;5014907;28;20037;-92
2023/03/29 06:55:14;;;;;;;4.97;1.20;;;6.90;99.90;;;;;;5016099;28;20033;-93
2023/03/29 06:57:41;;;;;;;3.53;1.10;;;7.00;99.90;;;;;;5015427;28;20065;-93
2023/03/29 07:00:17;;;;;;;3.63;1.57;;;7.20;99.90;;;;;;5023410;28;20029;-92
2023/03/29 07:02:46;;;;;;;3.17;1.40;;;7.30;99.90;;;;;;5022886;28;20049;-92
2023/03/29 07:05:13;;;;;;;6.53;1.63;;;7.40;99.90;;;;;;5023225;28;20036;-93
2023/03/29 07:10:31;;;;;;;7.53;1.30;;;7.50;99.90;;;;;;5024130;28;20064;-93
2023/03/29 07:12:59;;;;;;;4.77;1.57;;;7.70;99.90;;;;;;5022758;28;20033;-91
2023/03/29 07:15:26;;;;;;;1.57;1.10;;;7.80;99.90;;;;;;5023987;28;20488;-92
2023/03/29 07:17:52;;;;;;;5.33;1.40;;;7.90;99.90;;;;;;5025298;28;20045;-94
2023/03/29 07:20:18;;;;;;;1.90;1.17;;;8.00;99.90;;;;;;5023912;28;20025;-92
2023/03/29 07:22:46;;;;;;;4.60;1.30;;;8.00;99.90;;;;;;5022637;28;20033;-93
2023/03/29 07:25:12;;;;;;;4.50;1.33;;;8.10;99.90;;;;;;5024930;28;20032;-93
2023/03/29 07:27:40;;;;;;;3.03;1.20;;;8.20;99.90;;;;;;5026233;28;21316;-93
2023/03/29 07:30:09;;;;;;;1.93;1.10;;;8.20;99.90;;;;;;5026976;28;20072;-92
2023/03/29 07:32:39;;;;;;;4.53;1.53;;;8.20;99.90;;;;;;5026512;28;20057;-92
2023/03/29 07:35:06;;;;;;;2.43;1.10;;;8.30;99.90;;;;;;5027142;28;20105;-92
2023/03/29 07:37:34;;;;;;;3.10;1.20;;;8.40;99.90;;;;;;5026788;28;20041;-94
2023/03/29 07:40:02;;;;;;;4.10;1.40;;;8.50;99.90;;;;;;5027281;28;20072;-94
2023/03/29 07:42:27;;;;;;;5.10;1.30;;;8.50;99.90;;;;;;5029783;28;20029;-94
2023/03/29 07:44:53;;;;;;;1.50;1.10;;;8.70;99.90;;;;;;5030067;28;20050;-95
2023/03/29 07:47:19;;;;;;;2.53;1.07;;;8.70;99.90;;;;;;5029409;28;20436;-96
2023/03/29 07:49:45;;;;;;;4.93;1.30;;;8.80;99.90;;;;;;5029733;28;20115;-95
2023/03/29 07:52:10;;;;;;;6.13;1.30;;;8.70;99.90;;;;;;5029325;28;20097;-93
2023/03/29 07:54:36;;;;;;;3.57;1.27;;;8.70;99.90;;;;;;5024634;28;20041;-92
2023/03/29 07:57:02;;;;;;;2.50;1.37;;;8.70;99.90;;;;;;5026110;28;20077;-92
2023/03/29 07:59:28;;;;;;;3.07;1.33;;;8.70;99.90;;;;;;5020593;28;21462;-92
2023/03/29 08:01:54;;;;;;;4.43;1.47;;;8.70;99.90;;;;;;5019708;28;20060;-94
2023/03/29 08:04:20;;;;;;;3.43;1.20;;;8.90;99.90;;;;;;5020276;28;20112;-92
2023/03/29 08:06:45;;;;;;;3.47;1.27;;;8.90;99.90;;;;;;5023741;28;20029;-92
2023/03/29 08:09:11;;;;;;;3.70;1.30;;;9.00;99.90;;;;;;5022448;28;20239;-92
2023/03/29 08:11:38;;;;;;;3.60;1.20;;;9.00;99.90;;;;;;5018916;28;20688;-91
2023/03/29 08:14:05;;;;;;;5.03;1.50;;;9.00;99.90;;;;;;5022247;28;20025;-91
2023/03/29 08:16:30;;;;;;;4.10;1.00;;;9.00;99.90;;;;;;5021978;28;20052;-91
2023/03/29 08:18:56;;;;;;;2.40;1.40;;;8.90;99.90;;;;;;5022213;28;20112;-92
2023/03/29 08:21:24;;;;;;;4.97;1.20;;;8.90;99.90;;;;;;5022799;28;20033;-93
2023/03/29 08:23:50;;;;;;;4.73;1.70;;;8.90;99.90;;;;;;5021368;28;20104;-93
2023/03/29 08:26:16;;;;;;;4.67;1.63;;;8.80;99.90;;;;;;5022488;28;20030;-93
2023/03/29 08:28:42;;;;;;;3.90;1.57;;;8.80;99.90;;;;;;5020686;28;20144;-92
2023/03/29 08:31:08;;;;;;;3.60;1.50;;;8.80;99.90;;;;;;5022962;28;20449;-92
2023/03/29 08:33:35;;;;;;;2.03;1.20;;;8.90;99.90;;;;;;5024019;28;20038;-92
2023/03/29 08:36:01;;;;;;;4.10;1.17;;;8.90;99.90;;;;;;5021793;28;20041;-92
2023/03/29 08:38:27;;;;;;;7.60;1.73;;;8.90;99.90;;;;;;5021989;28;20057;-91
2023/03/29 08:40:53;;;;;;;3.17;1.47;;;8.90;99.90;;;;;;5022761;28;20077;-93
2023/03/29 08:43:51;;;;;;;5.87;1.70;;;9.00;99.90;;;;;;5022769;28;20056;-91
2023/03/29 08:46:29;;;;;;;3.67;1.50;;;9.10;99.90;;;;;;5022239;28;20450;-92
2023/03/29 08:49:01;;;;;;;3.13;1.50;;;9.20;99.90;;;;;;5022356;28;20723;-93
2023/03/29 08:51:31;;;;;;;3.03;1.23;;;9.40;99.90;;;;;;5023614;28;20477;-93
2023/03/29 08:54:12;;;;;;;4.27;1.50;;;9.60;99.90;;;;;;5022006;28;20097;-91
2023/03/29 08:56:39;;;;;;;4.90;1.20;;;9.80;99.90;;;;;;5021038;28;20536;-94
2023/03/29 08:59:13;;;;;;;4.33;1.23;;;10.00;99.90;;;;;;5020726;28;20049;-92
2023/03/29 09:01:39;;;;;;;3.10;1.30;;;10.30;99.90;;;;;;5023473;28;20025;-93
2023/03/29 09:04:08;;;;;;;5.90;1.43;;;10.40;99.90;;;;;;5019969;28;20107;-94
2023/03/29 09:06:34;;;;;;;2.20;1.30;;;10.40;99.90;;;;;;5024451;28;20093;-93
2023/03/29 09:09:00;;;;;;;3.70;1.27;;;10.50;99.90;;;;;;5022439;28;21010;-94
2023/03/29 09:11:35;;;;;;;6.13;1.63;;;10.60;99.90;;;;;;5023990;28;20021;-93
2023/03/29 09:14:27;;;;;;;3.35;1.38;;;10.60;99.90;;;;;;5021879;28;20033;-93
2023/03/29 09:17:23;;;;;;;8.17;1.30;;;10.60;99.90;;;;;;5024620;28;20116;-93
2023/03/29 09:20:18;;;;;;;4.50;1.53;;;10.60;99.90;;;;;;5002672;28;20029;-93
2023/03/29 09:23:29;;;;;;;4.03;1.30;;;10.60;99.90;;;;;;5021248;28;20036;-93
2023/03/29 09:26:12;;;;;;;3.17;1.30;;;10.50;99.90;;;;;;4934872;28;20047;-91
2023/03/29 09:28:58;;;;;;;4.60;1.30;;;10.40;99.90;;;;;;5013967;28;20041;-91
2023/03/29 09:31:33;;;;;;;3.10;1.20;;;10.50;99.90;;;;;;5022322;28;20045;-93
2023/03/29 09:34:21;;;;;;;4.20;1.30;;;10.50;99.90;;;;;;5022366;28;20088;-94
2023/03/29 09:37:02;;;;;;;4.10;1.43;;;10.50;99.90;;;;;;5022326;28;20038;-94
2023/03/29 09:39:28;;;;;;;3.73;1.30;;;10.50;99.90;;;;;;5019861;28;20128;-94
2023/03/29 09:42:07;;;;;;;3.60;1.57;;;10.60;99.90;;;;;;5023517;28;20942;-92
2023/03/29 09:44:43;;;;;;;2.83;1.40;;;10.60;99.90;;;;;;5023612;28;20069;-93
2023/03/29 09:47:23;;;;;;;4.87;1.17;;;10.60;99.90;;;;;;5023025;28;20072;-93
2023/03/29 09:49:54;;;;;;;7.50;1.50;;;10.60;99.90;;;;;;5023642;28;20143;-93
2023/03/29 09:52:19;;;;;;;2.97;1.40;;;10.70;99.90;;;;;;5023227;28;20053;-87
2023/03/29 09:54:45;;;;;;;2.10;1.30;;;10.70;99.90;;;;;;5032021;28;20390;-95
2023/03/29 09:57:15;;;;;;;3.53;1.53;;;10.80;99.90;;;;;;5030033;28;20045;-83
2023/03/29 09:59:41;;;;;;;8.73;1.55;;;10.90;99.90;;;;;;5017366;28;20049;-95
2023/03/29 10:02:10;;;;;;;3.67;1.23;;;11.10;99.90;;;;;;5038706;28;20077;-96
2023/03/29 10:04:41;;;;;;;5.30;1.30;;;11.20;99.90;;;;;;5040680;28;20029;-95
2023/03/29 10:07:08;;;;;;;4.85;1.63;;;11.30;99.90;;;;;;5037937;28;20052;-96
2023/03/29 10:09:34;;;;;;;2.10;1.23;;;11.50;99.90;;;;;;5042412;28;20114;-96
2023/03/29 10:12:04;;;;;;;3.15;1.25;;;11.60;99.90;;;;;;5040541;28;20041;-96
2023/03/29 10:14:41;;;;;;;3.50;1.20;;;11.60;99.90;;;;;;5035001;28;20078;-96
2023/03/29 10:17:26;;;;;;;5.03;1.63;;;11.70;99.90;;;;;;5036434;28;20029;-94
2023/03/29 10:19:57;;;;;;;4.55;1.27;;;11.60;99.90;;;;;;5031663;28;20072;-96
2023/03/29 10:22:33;;;;;;;4.40;1.13;;;11.70;99.90;;;;;;5028497;28;20052;-96
2023/03/29 10:25:12;;;;;;;3.85;1.20;;;11.80;99.90;;;;;;5025458;28;20130;-96
2023/03/29 10:27:41;;;;;;;6.80;1.27;;;11.70;99.90;;;;;;5030292;28;20038;-96
2023/03/29 10:30:11;;;;;;;4.18;1.27;;;11.70;99.90;;;;;;5027572;28;20045;-95
2023/03/29 10:32:38;;;;;;;4.30;1.02;;;11.70;99.90;;;;;;5017833;28;20049;-96
2023/03/29 10:35:13;;;;;;;4.55;1.58;;;11.70;99.90;;;;;;5027560;28;20083;-95
2023/03/29 10:37:45;;;;;;;2.63;1.10;;;11.80;99.90;;;;;;5026326;28;21474;-94
2023/03/29 10:40:44;;;;;;;4.63;1.17;;;11.90;99.90;;;;;;5024940;28;20036;-94
2023/03/29 10:43:22;;;;;;;4.30;1.60;;;12.00;99.90;;;;;;5023600;28;20033;-95
2023/03/29 10:45:49;;;;;;;4.47;1.35;;;12.20;99.90;;;;;;5028123;28;20029;-96
2023/03/29 10:48:16;;;;;;;3.92;1.67;;;12.40;99.90;;;;;;5026561;28;20030;-95
2023/03/29 10:50:47;;;;;;;6.40;2.05;;;12.50;99.90;;;;;;5024810;28;20101;-95
2023/03/29 10:53:33;;;;;;;4.18;1.20;;;12.70;99.90;;;;;;5025047;28;20172;-95
2023/03/29 10:56:02;;;;;;;2.53;1.33;;;12.80;99.90;;;;;;5024076;28;20111;-94
2023/03/29 10:58:33;;;;;;;3.25;1.40;;;12.90;99.90;;;;;;5030089;28;20092;-95
2023/03/29 11:00:58;;;;;;;3.08;1.40;;;13.00;99.90;;;;;;5027320;28;20117;-96
2023/03/29 11:03:56;;;;;;;3.80;1.27;;;13.20;99.90;;;;;;5038093;28;21204;-96
2023/03/29 11:06:46;;;;;;;3.80;1.38;;;13.30;99.90;;;;;;5023620;28;20033;-96
2023/03/29 11:09:36;;;;;;;3.00;1.30;;;13.50;99.90;;;;;;5034378;28;20037;-96
2023/03/29 11:12:32;;;;;;;4.30;1.20;;;13.50;99.90;;;;;;5038334;28;20033;-96
2023/03/29 11:15:10;;;;;;;4.22;1.50;;;13.50;99.90;;;;;;5039450;28;20032;-96
2023/03/29 11:18:06;;;;;;;2.40;1.20;;;13.60;99.90;;;;;;5039341;28;20025;-94
2023/03/29 11:20:43;;;;;;;2.42;1.10;;;13.60;99.90;;;;;;5039319;28;20085;-96
2023/03/29 11:23:36;;;;;;;2.80;1.23;;;13.70;99.90;;;;;;5035882;28;20045;-95
2023/03/29 11:26:17;;;;;;;5.32;1.30;;;13.80;99.90;;;;;;5041123;28;20071;-96
2023/03/29 11:28:49;;;;;;;2.88;1.02;;;13.80;99.90;;;;;;5041028;28;20025;-96
2023/03/29 11:31:46;;;;;;;3.78;1.08;;;13.70;99.90;;;;;;5038808;28;20040;-95
2023/03/29 11:34:35;;;;;;;3.22;1.00;;;13.70;99.90;;;;;;5010553;28;20073;-96
2023/03/29 11:37:25;;;;;;;2.63;1.30;;;13.70;99.90;;;;;;5036152;28;20029;-96
2023/03/29 11:40:15;;;;;;;3.60;1.08;;;13.60;99.90;;;;;;5034606;28;20048;-96
2023/03/29 11:42:46;;;;;;;3.63;1.05;;;13.50;99.90;;;;;;5034738;28;20028;-95
2023/03/29 11:45:20;;;;;;;4.53;1.17;;;13.60;99.90;;;;;;5030820;28;20072;-96
2023/03/29 11:47:47;;;;;;;5.13;1.23;;;13.50;99.90;;;;;;5013420;28;20029;-95
2023/03/29 11:50:18;;;;;;;3.72;1.10;;;13.50;99.90;;;;;;5032788;28;20042;-96
2023/03/29 11:52:52;;;;;;;4.97;1.55;;;13.40;99.90;;;;;;5013061;28;20041;-95
2023/03/29 11:55:22;;;;;;;5.45;1.48;;;13.40;99.90;;;;;;5034809;28;20053;-96
2023/03/29 11:58:13;;;;;;;7.07;1.30;;;13.40;99.90;;;;;;5035663;28;20088;-96
2023/03/29 12:00:47;;;;;;;3.17;1.13;;;13.50;99.90;;;;;;5033656;28;20072;-95
2023/03/29 12:03:27;;;;;;;2.35;1.10;;;13.60;99.90;;;;;;5028977;28;20208;-96
2023/03/29 12:06:01;;;;;;;4.15;1.23;;;13.80;99.90;;;;;;5033756;28;20088;-94
2023/03/29 12:08:36;;;;;;;2.60;1.27;;;13.90;99.90;;;;;;5032252;28;20022;-94
2023/03/29 12:11:28;;;;;;;3.40;1.35;;;14.10;99.90;;;;;;5027313;28;20279;-94
2023/03/29 12:14:03;;;;;;;2.40;1.38;;;14.20;99.90;;;;;;5021678;28;21069;-93
2023/03/29 12:16:59;;;;;;;2.55;1.30;;;14.20;99.90;;;;;;5025763;28;20040;-91
2023/03/29 12:19:30;;;;;;;2.35;1.30;;;14.10;99.90;;;;;;5024094;28;20981;-91
2023/03/29 12:21:58;;;;;;;4.00;1.35;;;14.10;99.90;;;;;;5004088;28;20499;-91
2023/03/29 12:24:28;;;;;;;3.28;1.52;;;14.10;99.90;;;;;;5025460;28;20048;-94
2023/03/29 12:27:02;;;;;;;4.95;1.52;;;14.20;99.90;;;;;;5024525;28;20072;-92
2023/03/29 12:29:44;;;;;;;4.57;1.13;;;14.10;99.90;;;;;;5025924;28;20064;-94
2023/03/29 12:32:33;;;;;;;6.38;1.45;;;14.10;99.90;;;;;;5022670;28;21360;-93
2023/03/29 12:35:13;;;;;;;4.57;1.40;;;14.10;99.90;;;;;;5026157;28;20040;-93
2023/03/29 12:37:53;;;;;;;3.65;0.90;;;14.10;99.90;;;;;;5025497;28;20949;-93
2023/03/29 12:40:23;;;;;;;2.33;1.38;;;14.00;99.90;;;;;;5025472;28;20033;-82
2023/03/29 12:43:03;;;;;;;4.05;1.65;;;14.00;99.90;;;;;;5026737;28;20033;-91
2023/03/29 12:45:38;;;;;;;4.18;1.52;;;14.00;99.90;;;;;;5020668;28;20034;-91
2023/03/29 12:48:06;;;;;;;2.20;1.33;;;14.00;99.90;;;;;;5023862;28;20021;-92
2023/03/29 12:50:49;;;;;;;5.07;1.30;;;14.00;99.90;;;;;;5024416;28;20116;-95
2023/03/29 12:53:17;;;;;;;4.53;1.42;;;14.00;99.90;;;;;;5023537;28;20056;-92
2023/03/29 12:55:43;;;;;;;4.05;1.35;;;13.90;99.90;;;;;;5023755;28;20224;-93
2023/03/29 12:58:29;;;;;;;5.13;1.38;;;14.00;99.90;;;;;;5023982;28;20049;-94
2023/03/29 13:01:04;;;;;;;8.30;1.70;;;14.10;99.90;;;;;;5012804;28;20021;-94
2023/03/29 13:03:47;;;;;;;7.40;2.13;;;14.50;99.90;;;;;;5023871;28;20036;-92
2023/03/29 13:06:45;;;;;;;3.20;1.30;;;14.70;99.90;;;;;;5022404;28;20053;-92
2023/03/29 13:09:22;;;;;;;2.28;1.30;;;14.90;99.90;;;;;;5022176;28;20061;-92
2023/03/29 13:11:54;;;;;;;6.53;1.95;;;15.10;99.90;;;;;;5023653;28;20142;-93
2023/03/29 13:14:25;;;;;;;3.55;1.40;;;15.40;99.90;;;;;;5003855;28;20056;-94
2023/03/29 13:16:50;;;;;;;3.80;1.50;;;15.70;99.90;;;;;;5025484;28;20040;-93